Time,TemperatureF,DewpointF,PressureIn,WindDirection,WindDirectionDegrees,WindSpeedMPH,WindSpeedGustMPH,Humidity,HourlyPrecipIn,Conditions,Clouds,dailyrainin,SoftwareType,DateUTC
2014-09-30 00:04:00,69.3,63.9,29.72,SW,227,0.0,0.0,83,0.00,,,0.00,meteobridge,2014-09-30 05:04:00,
2014-09-30 00:09:00,69.1,63.7,29.72,SW,227,0.0,0.0,83,0.00,,,0.00,meteobridge,2014-09-30 05:09:00,
2014-09-30 00:14:00,68.9,63.5,29.72,SW,227,0.0,0.0,83,0.00,,,0.00,meteobridge,2014-09-30 05:14:00,
2014-09-30 00:19:00,68.7,63.3,29.71,SW,227,0.0,0.0,83,0.00,,,0.00,meteobridge,2014-09-30 05:19:00,
2014-09-30 00:21:00,68.7,63.3,29.72,SW,227,0.0,0.0,83,0.00,,,0.00,meteobridge,2014-09-30 05:21:00,
2014-09-30 00:26:00,68.5,63.1,29.71,SW,227,0.0,0.0,83,0.00,,,0.00,meteobridge,2014-09-30 05:26:00,
2014-09-30 00:31:00,68.4,63.3,29.71,SW,227,0.0,0.0,84,0.00,,,0.00,meteobridge,2014-09-30 05:31:00,
2014-09-30 00:36:00,68.4,63.3,29.71,SW,227,0.0,0.0,84,0.00,,,0.00,meteobridge,2014-09-30 05:36:00,
2014-09-30 00:41:00,68.2,63.1,29.71,SW,227,0.0,0.0,84,0.00,,,0.00,meteobridge,2014-09-30 05:41:00,
2014-09-30 00:46:00,68.2,63.1,29.71,SW,227,0.0,0.0,84,0.00,,,0.00,meteobridge,2014-09-30 05:46:00,
2014-09-30 00:51:00,68.0,63.0,29.71,SW,227,0.0,0.0,84,0.00,,,0.00,meteobridge,2014-09-30 05:51:00,
2014-09-30 00:56:00,67.8,62.8,29.71,SW,227,0.0,0.0,84,0.00,,,0.00,meteobridge,2014-09-30 05:56:00,
2014-09-30 01:01:00,67.6,63.0,29.71,SW,227,0.0,0.0,85,0.00,,,0.00,meteobridge,2014-09-30 06:01:00,
2014-09-30 01:06:00,67.6,63.0,29.71,SW,227,0.0,0.0,85,0.00,,,0.00,meteobridge,2014-09-30 06:06:00,
2014-09-30 01:11:00,67.5,63.1,29.71,SW,227,0.0,0.0,86,0.00,,,0.00,meteobridge,2014-09-30 06:11:00,
2014-09-30 01:16:00,67.5,63.1,29.71,SW,227,0.0,0.0,86,0.00,,,0.00,meteobridge,2014-09-30 06:16:00,
2014-09-30 01:21:00,67.5,63.5,29.71,SW,227,0.0,0.0,87,0.00,,,0.00,meteobridge,2014-09-30 06:21:00,
2014-09-30 01:26:00,67.3,63.3,29.71,SW,227,0.0,0.0,87,0.00,,,0.00,meteobridge,2014-09-30 06:26:00,
2014-09-30 01:31:00,67.3,63.3,29.71,SW,227,0.0,0.0,87,0.00,,,0.00,meteobridge,2014-09-30 06:31:00,
2014-09-30 01:36:00,67.1,63.1,29.71,SW,227,0.0,0.0,87,0.00,,,0.00,meteobridge,2014-09-30 06:36:00,
2014-09-30 01:41:00,66.9,63.0,29.72,SW,227,0.0,0.0,87,0.00,,,0.00,meteobridge,2014-09-30 06:41:00,
2014-09-30 01:46:00,66.9,63.0,29.72,SW,227,0.0,0.0,87,0.00,,,0.00,meteobridge,2014-09-30 06:46:00,
2014-09-30 01:51:00,66.7,62.8,29.71,SW,227,0.0,0.0,87,0.00,,,0.00,meteobridge,2014-09-30 06:51:00,
2014-09-30 01:56:00,66.7,62.8,29.72,SW,227,0.0,0.0,87,0.00,,,0.00,meteobridge,2014-09-30 06:56:00,
2014-09-30 02:01:00,66.7,62.8,29.71,SW,227,0.0,0.0,87,0.00,,,0.00,meteobridge,2014-09-30 07:01:00,
2014-09-30 02:06:00,66.7,63.1,29.72,SW,227,0.0,0.0,88,0.00,,,0.00,meteobridge,2014-09-30 07:06:00,
2014-09-30 02:11:00,66.7,62.8,29.71,SW,227,0.0,0.0,87,0.00,,,0.00,meteobridge,2014-09-30 07:11:00,
2014-09-30 02:16:00,66.7,62.8,29.71,SW,227,0.0,0.0,87,0.00,,,0.00,meteobridge,2014-09-30 07:16:00,
2014-09-30 02:21:00,66.7,63.1,29.72,SW,227,0.0,0.0,88,0.00,,,0.00,meteobridge,2014-09-30 07:21:00,
2014-09-30 02:26:00,66.7,62.8,29.72,SW,227,0.0,0.0,87,0.00,,,0.00,meteobridge,2014-09-30 07:26:00,
2014-09-30 02:31:00,66.7,62.8,29.72,SW,227,0.0,0.0,87,0.00,,,0.00,meteobridge,2014-09-30 07:31:00,
2014-09-30 02:36:00,66.7,62.8,29.72,SW,227,0.0,0.0,87,0.00,,,0.00,meteobridge,2014-09-30 07:36:00,
2014-09-30 02:41:00,66.6,63.0,29.72,SW,227,0.0,0.0,88,0.00,,,0.00,meteobridge,2014-09-30 07:41:00,
2014-09-30 02:46:00,66.6,63.0,29.72,SW,227,0.0,0.0,88,0.00,,,0.00,meteobridge,2014-09-30 07:46:00,
2014-09-30 02:51:00,66.6,63.0,29.72,SW,227,0.0,0.0,88,0.00,,,0.00,meteobridge,2014-09-30 07:51:00,
2014-09-30 02:56:00,66.6,63.0,29.72,SW,227,0.0,0.0,88,0.00,,,0.00,meteobridge,2014-09-30 07:56:00,
2014-09-30 03:01:00,66.4,62.8,29.72,SW,227,0.0,0.0,88,0.00,,,0.00,meteobridge,2014-09-30 08:01:00,
2014-09-30 03:06:00,66.4,62.8,29.72,SW,227,0.0,0.0,88,0.00,,,0.00,meteobridge,2014-09-30 08:06:00,
2014-09-30 03:11:00,66.4,62.8,29.72,SW,227,0.0,0.0,88,0.00,,,0.00,meteobridge,2014-09-30 08:11:00,
2014-09-30 03:16:00,66.4,62.8,29.72,SW,227,0.0,0.0,88,0.00,,,0.00,meteobridge,2014-09-30 08:16:00,
2014-09-30 03:21:00,66.2,62.6,29.71,SW,227,0.0,0.0,88,0.00,,,0.00,meteobridge,2014-09-30 08:21:00,
2014-09-30 03:26:00,66.2,62.8,29.71,SW,227,0.0,0.0,89,0.00,,,0.00,meteobridge,2014-09-30 08:26:00,
2014-09-30 03:31:00,66.2,62.8,29.71,SW,227,0.0,0.0,89,0.00,,,0.00,meteobridge,2014-09-30 08:31:00,
2014-09-30 03:36:00,66.0,62.6,29.71,SW,227,0.0,0.0,89,0.00,,,0.00,meteobridge,2014-09-30 08:36:00,
2014-09-30 03:41:00,66.0,62.6,29.71,SW,227,0.0,0.0,89,0.00,,,0.00,meteobridge,2014-09-30 08:41:00,
2014-09-30 03:45:00,66.0,62.6,29.71,SW,227,0.0,0.0,89,0.00,,,0.00,meteobridge,2014-09-30 08:45:00,
2014-09-30 03:50:00,66.0,62.6,29.70,SW,227,0.0,0.0,89,0.00,,,0.00,meteobridge,2014-09-30 08:50:00,
2014-09-30 03:55:00,66.0,62.6,29.71,SW,227,0.0,0.0,89,0.00,,,0.00,meteobridge,2014-09-30 08:55:00,
2014-09-30 04:00:00,66.0,62.6,29.71,SW,227,0.0,0.0,89,0.00,,,0.00,meteobridge,2014-09-30 09:00:00,
2014-09-30 04:05:00,66.0,62.6,29.71,SW,227,0.0,0.0,89,0.00,,,0.00,meteobridge,2014-09-30 09:05:00,
2014-09-30 04:10:00,66.0,62.6,29.71,SW,227,0.0,0.0,89,0.00,,,0.00,meteobridge,2014-09-30 09:10:00,
2014-09-30 04:15:00,65.8,62.4,29.71,SW,227,0.0,0.0,89,0.00,,,0.00,meteobridge,2014-09-30 09:15:00,
2014-09-30 04:20:00,65.8,62.4,29.71,SW,227,0.0,0.0,89,0.00,,,0.00,meteobridge,2014-09-30 09:20:00,
2014-09-30 04:25:00,65.7,62.2,29.71,SW,227,0.0,0.0,89,0.00,,,0.00,meteobridge,2014-09-30 09:25:00,
2014-09-30 04:30:00,65.7,62.6,29.71,SW,227,0.0,0.0,90,0.00,,,0.00,meteobridge,2014-09-30 09:30:00,
2014-09-30 04:35:00,65.5,62.4,29.71,SW,227,0.0,0.0,90,0.00,,,0.00,meteobridge,2014-09-30 09:35:00,
2014-09-30 04:40:00,65.5,62.4,29.70,SW,227,0.0,0.0,90,0.00,,,0.00,meteobridge,2014-09-30 09:40:00,
2014-09-30 04:45:00,65.3,62.2,29.70,SW,227,0.0,0.0,90,0.00,,,0.00,meteobridge,2014-09-30 09:45:00,
2014-09-30 04:50:00,65.1,62.1,29.70,SW,227,0.0,0.0,90,0.00,,,0.00,meteobridge,2014-09-30 09:50:00,
2014-09-30 04:55:00,65.1,62.4,29.70,SW,227,0.0,0.0,91,0.00,,,0.00,meteobridge,2014-09-30 09:55:00,
2014-09-30 05:00:00,64.9,62.2,29.70,SW,227,0.0,0.0,91,0.00,,,0.00,meteobridge,2014-09-30 10:00:00,
2014-09-30 05:05:00,64.9,62.2,29.70,SW,227,0.0,0.0,91,0.00,,,0.00,meteobridge,2014-09-30 10:05:00,
2014-09-30 05:10:00,64.9,62.2,29.70,SW,227,0.0,0.0,91,0.00,,,0.00,meteobridge,2014-09-30 10:10:00,
2014-09-30 05:15:00,64.8,62.1,29.70,SW,227,0.0,0.0,91,0.00,,,0.00,meteobridge,2014-09-30 10:15:00,
2014-09-30 05:20:00,64.8,62.1,29.70,SW,227,0.0,0.0,91,0.00,,,0.00,meteobridge,2014-09-30 10:20:00,
2014-09-30 05:25:00,64.6,61.9,29.70,SW,227,0.0,0.0,91,0.00,,,0.00,meteobridge,2014-09-30 10:25:00,
2014-09-30 05:30:00,64.6,61.9,29.70,SW,227,0.0,0.0,91,0.00,,,0.00,meteobridge,2014-09-30 10:30:00,
2014-09-30 05:35:00,64.6,62.2,29.70,SW,227,0.0,0.0,92,0.00,,,0.00,meteobridge,2014-09-30 10:35:00,
2014-09-30 05:40:00,64.6,62.2,29.70,SW,227,0.0,0.0,92,0.00,,,0.00,meteobridge,2014-09-30 10:40:00,
2014-09-30 05:45:00,64.6,62.2,29.70,SW,227,0.0,0.0,92,0.00,,,0.00,meteobridge,2014-09-30 10:45:00,
2014-09-30 05:50:00,64.6,62.2,29.71,SW,227,0.0,0.0,92,0.00,,,0.00,meteobridge,2014-09-30 10:50:00,
2014-09-30 05:55:00,64.8,62.1,29.71,SW,227,0.0,0.0,91,0.00,,,0.00,meteobridge,2014-09-30 10:55:00,
2014-09-30 06:00:00,64.6,61.9,29.71,SW,227,0.0,0.0,91,0.00,,,0.00,meteobridge,2014-09-30 11:00:00,
2014-09-30 06:05:00,64.6,61.9,29.71,SW,227,0.0,0.0,91,0.00,,,0.00,meteobridge,2014-09-30 11:05:00,
2014-09-30 06:10:00,64.6,61.9,29.71,SW,227,0.0,0.0,91,0.00,,,0.00,meteobridge,2014-09-30 11:10:00,
2014-09-30 06:15:00,64.6,62.2,29.71,SW,227,0.0,0.0,92,0.00,,,0.00,meteobridge,2014-09-30 11:15:00,
2014-09-30 06:18:00,64.4,62.1,29.71,SW,227,0.0,0.0,92,0.00,,,0.00,meteobridge,2014-09-30 11:18:00,
2014-09-30 06:23:00,64.4,62.1,29.71,SW,227,0.0,0.0,92,0.00,,,0.00,meteobridge,2014-09-30 11:23:00,
2014-09-30 06:28:00,64.2,61.9,29.71,SW,227,0.0,0.0,92,0.00,,,0.00,meteobridge,2014-09-30 11:28:00,